createdAt,value
2018-07-22T00:00:34.693Z,4.00
2018-07-22T00:01:34.670Z,4.00
2018-07-22T00:02:34.674Z,4.00
2018-07-22T00:03:34.643Z,4.00
2018-07-22T00:04:34.632Z,4.00
2018-07-22T00:05:34.618Z,4.00
2018-07-22T00:06:34.607Z,4.00
2018-07-22T00:07:34.592Z,4.00
2018-07-22T00:08:34.587Z,4.00
2018-07-22T00:09:34.567Z,4.00
2018-07-22T00:10:34.554Z,4.00
2018-07-22T00:11:34.540Z,4.00
2018-07-22T00:12:34.525Z,4.00
2018-07-22T00:13:34.512Z,4.00
2018-07-22T00:14:34.501Z,4.00
2018-07-22T00:15:34.490Z,4.00
2018-07-22T00:16:34.530Z,4.00
2018-07-22T00:17:34.459Z,4.00
2018-07-22T00:18:34.447Z,4.00
2018-07-22T00:19:34.431Z,4.00
2018-07-22T00:20:34.422Z,4.00
2018-07-22T00:21:34.406Z,4.00
2018-07-22T00:22:34.393Z,4.00
2018-07-22T00:23:34.379Z,4.00
2018-07-22T00:24:34.374Z,4.00
2018-07-22T00:25:34.354Z,4.00
2018-07-22T00:26:34.338Z,4.00
2018-07-22T00:27:34.332Z,4.00
2018-07-22T00:28:34.312Z,4.00
2018-07-22T00:29:34.298Z,4.00
2018-07-22T00:30:34.286Z,4.00
2018-07-22T00:31:34.275Z,4.00
2018-07-22T00:32:34.261Z,4.00
2018-07-22T00:33:34.245Z,4.00
2018-07-22T00:34:34.238Z,4.00
2018-07-22T00:35:34.218Z,4.00
2018-07-22T00:36:34.205Z,4.00
2018-07-22T00:37:34.194Z,4.00
2018-07-22T00:38:34.188Z,4.00
2018-07-22T00:39:34.165Z,4.00
2018-07-22T00:40:34.152Z,4.00
2018-07-22T00:41:34.142Z,4.00
2018-07-22T00:42:34.126Z,4.00
2018-07-22T00:43:34.110Z,4.00
2018-07-22T00:44:34.099Z,4.00
2018-07-22T00:45:34.086Z,4.00
2018-07-22T00:46:34.071Z,4.00
2018-07-22T00:47:34.057Z,4.00
2018-07-22T00:48:34.043Z,4.00
2018-07-22T00:49:34.033Z,4.00
2018-07-22T00:50:34.017Z,4.00
2018-07-22T00:51:34.001Z,4.00
2018-07-22T00:52:33.989Z,4.00
2018-07-22T00:53:33.975Z,4.00
2018-07-22T00:54:33.962Z,4.00
2018-07-22T00:55:33.948Z,4.00
2018-07-22T00:56:33.935Z,4.00
2018-07-22T00:57:33.921Z,4.00
2018-07-22T00:58:33.906Z,4.00
2018-07-22T00:59:33.892Z,4.00
2018-07-22T01:00:33.886Z,4.00
2018-07-22T01:01:33.868Z,4.00
2018-07-22T01:02:33.853Z,4.00
2018-07-22T01:03:33.838Z,4.00
2018-07-22T01:04:33.827Z,4.00
2018-07-22T01:05:33.811Z,4.00
2018-07-22T01:06:33.806Z,4.00
2018-07-22T01:07:33.785Z,4.00
2018-07-22T01:08:33.774Z,4.00
2018-07-22T01:09:33.762Z,4.00
2018-07-22T01:10:33.748Z,4.00
2018-07-22T01:11:33.730Z,4.00
2018-07-22T01:12:33.719Z,4.00
2018-07-22T01:13:33.703Z,4.00
2018-07-22T01:14:33.693Z,4.00
2018-07-22T01:15:33.676Z,4.00
2018-07-22T01:16:33.663Z,4.00
2018-07-22T01:17:33.663Z,4.00
2018-07-22T01:18:33.636Z,4.00
2018-07-22T01:19:33.624Z,4.00
2018-07-22T01:20:33.607Z,4.00
2018-07-22T01:21:33.601Z,4.00
2018-07-22T01:22:33.580Z,4.00
2018-07-22T01:23:33.569Z,4.00
2018-07-22T01:24:33.553Z,4.00
2018-07-22T01:25:33.540Z,4.00
2018-07-22T01:26:33.525Z,4.00
2018-07-22T01:27:33.512Z,4.00
2018-07-22T01:28:33.497Z,4.00
2018-07-22T01:29:33.483Z,4.00
2018-07-22T01:30:33.471Z,4.00
2018-07-22T01:31:33.457Z,4.00
2018-07-22T01:32:33.442Z,4.00
2018-07-22T01:33:33.430Z,4.00
2018-07-22T01:34:33.421Z,4.00
2018-07-22T01:35:33.400Z,4.00
2018-07-22T01:36:33.518Z,4.00
2018-07-22T01:37:33.377Z,4.00
2018-07-22T01:38:33.361Z,4.00
2018-07-22T01:39:33.347Z,4.00
2018-07-22T01:40:33.335Z,4.00
2018-07-22T01:41:33.320Z,4.00
2018-07-22T01:42:33.315Z,4.00
2018-07-22T01:43:33.305Z,4.00
2018-07-22T01:44:33.280Z,4.00
2018-07-22T01:45:33.265Z,4.00
2018-07-22T01:46:33.256Z,4.00
2018-07-22T01:47:33.261Z,4.00
2018-07-22T01:48:33.222Z,4.00
2018-07-22T01:49:33.212Z,4.00
2018-07-22T01:50:33.196Z,4.00
2018-07-22T01:51:33.185Z,4.00
2018-07-22T01:52:33.168Z,4.00
2018-07-22T01:53:33.158Z,4.00
2018-07-22T01:54:33.139Z,4.00
2018-07-22T01:55:33.237Z,4.00
2018-07-22T01:56:33.123Z,4.00
2018-07-22T01:57:33.098Z,4.00
2018-07-22T01:58:33.085Z,4.00
2018-07-22T01:59:33.075Z,4.00
2018-07-22T02:00:33.056Z,4.00
2018-07-22T02:01:33.053Z,4.00
2018-07-22T02:02:33.029Z,4.00
2018-07-22T02:03:33.014Z,4.00
2018-07-22T02:04:33.001Z,4.00
2018-07-22T02:05:32.987Z,4.00
2018-07-22T02:06:32.975Z,4.00
2018-07-22T02:07:32.959Z,4.00
2018-07-22T02:08:32.946Z,4.00
2018-07-22T02:09:32.930Z,4.00
2018-07-22T02:10:32.921Z,4.00
2018-07-22T02:11:32.901Z,4.00
2018-07-22T02:12:32.889Z,4.00
2018-07-22T02:13:32.876Z,4.00
2018-07-22T02:14:32.862Z,4.00
2018-07-22T02:15:32.856Z,4.00
2018-07-22T02:16:32.842Z,4.00
2018-07-22T02:17:32.822Z,4.00
2018-07-22T02:18:32.807Z,4.00
2018-07-22T02:19:32.792Z,4.00
2018-07-22T02:20:32.781Z,4.00
2018-07-22T02:21:32.772Z,4.00
2018-07-22T02:22:32.754Z,4.00
2018-07-22T02:23:32.745Z,4.00
2018-07-22T02:24:32.727Z,4.00
2018-07-22T02:25:32.792Z,4.00
2018-07-22T02:26:32.697Z,4.00
2018-07-22T02:27:32.685Z,4.00
2018-07-22T02:28:32.672Z,4.00
2018-07-22T02:29:32.664Z,4.00
2018-07-22T02:30:32.643Z,4.00
2018-07-22T02:31:32.629Z,4.00
2018-07-22T02:32:32.630Z,4.00
2018-07-22T02:33:32.604Z,4.00
2018-07-22T02:34:32.597Z,4.00
2018-07-22T02:35:32.572Z,4.00
2018-07-22T02:36:32.567Z,4.00
2018-07-22T02:37:32.546Z,4.00
2018-07-22T02:38:32.535Z,4.00
2018-07-22T02:39:32.524Z,4.00
2018-07-22T02:40:32.506Z,4.00
2018-07-22T02:41:32.503Z,4.00
2018-07-22T02:42:32.478Z,4.00
2018-07-22T02:43:32.470Z,4.00
2018-07-22T02:44:32.495Z,4.00
2018-07-22T02:45:32.441Z,8.00
2018-07-22T02:46:32.426Z,8.00
2018-07-22T02:47:32.410Z,4.00
2018-07-22T02:48:32.401Z,4.00
2018-07-22T02:49:32.385Z,4.00
2018-07-22T02:50:32.381Z,4.00
2018-07-22T02:51:32.408Z,4.00
2018-07-22T02:52:32.345Z,4.00
2018-07-22T02:53:32.330Z,4.00
2018-07-22T02:54:32.314Z,4.00
2018-07-22T02:55:32.299Z,8.00
2018-07-22T02:56:32.291Z,8.00
2018-07-22T02:57:32.273Z,8.00
2018-07-22T02:58:32.260Z,4.00
2018-07-22T02:59:32.244Z,8.00
2018-07-22T03:00:32.231Z,8.00
2018-07-22T03:01:32.228Z,8.00
2018-07-22T03:02:32.205Z,8.00
2018-07-22T03:03:32.186Z,8.00
2018-07-22T03:04:32.176Z,12.00
2018-07-22T03:05:32.300Z,12.00
2018-07-22T03:06:32.150Z,12.00
2018-07-22T03:07:32.137Z,16.00
2018-07-22T03:08:32.122Z,16.00
2018-07-22T03:09:32.107Z,20.00
2018-07-22T03:10:32.097Z,16.00
2018-07-22T03:11:32.085Z,20.00
2018-07-22T03:12:32.064Z,24.00
2018-07-22T03:13:32.059Z,24.00
2018-07-22T03:14:32.037Z,28.00
2018-07-22T03:15:32.024Z,32.00
2018-07-22T03:16:32.008Z,32.00
2018-07-22T03:17:31.994Z,36.00
2018-07-22T03:18:31.981Z,40.00
2018-07-22T03:19:31.967Z,48.00
2018-07-22T03:20:31.952Z,52.00
2018-07-22T03:21:31.942Z,56.00
2018-07-22T03:22:31.926Z,60.00
2018-07-22T03:23:31.910Z,68.00
2018-07-22T03:24:31.898Z,76.00
2018-07-22T03:25:31.884Z,84.00
2018-07-22T03:26:31.868Z,92.00
2018-07-22T03:27:31.858Z,104.00
2018-07-22T03:28:31.845Z,112.00
2018-07-22T03:29:31.827Z,120.00
2018-07-22T03:30:31.828Z,132.00
2018-07-22T03:31:31.798Z,144.00
2018-07-22T03:32:31.787Z,156.00
2018-07-22T03:33:31.773Z,168.00
2018-07-22T03:34:31.758Z,184.00
2018-07-22T03:35:31.747Z,196.00
2018-07-22T03:36:31.734Z,208.00
2018-07-22T03:37:31.757Z,224.00
2018-07-22T03:38:31.715Z,244.00
2018-07-22T03:39:31.688Z,260.00
2018-07-22T03:40:31.674Z,276.00
2018-07-22T03:41:31.661Z,296.00
2018-07-22T03:42:31.655Z,312.00
2018-07-22T03:43:31.637Z,332.00
2018-07-22T03:44:31.620Z,356.00
2018-07-22T03:45:31.604Z,376.00
2018-07-22T03:46:31.593Z,396.00
2018-07-22T03:47:31.649Z,420.00
2018-07-22T03:48:31.565Z,444.00
2018-07-22T03:49:31.547Z,472.00
2018-07-22T03:50:31.535Z,496.00
2018-07-22T03:51:31.519Z,528.00
2018-07-22T03:52:31.512Z,556.00
2018-07-22T03:53:31.496Z,584.00
2018-07-22T03:54:31.479Z,612.00
2018-07-22T03:55:31.463Z,644.00
2018-07-22T03:56:31.449Z,676.00
2018-07-22T03:57:31.437Z,708.00
2018-07-22T03:58:31.426Z,740.00
2018-07-22T03:59:31.407Z,776.00
2018-07-22T04:00:31.395Z,808.00
2018-07-22T04:01:31.378Z,848.00
2018-07-22T04:02:31.373Z,880.00
2018-07-22T04:03:31.352Z,920.00
2018-07-22T04:04:31.338Z,964.00
2018-07-22T04:05:31.324Z,1004.00
2018-07-22T04:06:31.319Z,1040.00
2018-07-22T04:07:31.295Z,1088.00
2018-07-22T04:08:31.283Z,1132.00
2018-07-22T04:09:31.269Z,1176.00
2018-07-22T04:10:31.256Z,1224.00
2018-07-22T04:11:31.251Z,1272.00
2018-07-22T04:12:31.234Z,1328.00
2018-07-22T04:13:31.212Z,1380.00
2018-07-22T04:14:31.207Z,1436.00
2018-07-22T04:15:31.184Z,1500.00
2018-07-22T04:16:31.171Z,1556.00
2018-07-22T04:17:31.155Z,1616.00
2018-07-22T04:18:31.142Z,1676.00
2018-07-22T04:19:31.132Z,1736.00
2018-07-22T04:20:31.114Z,1804.00
2018-07-22T04:21:31.142Z,1868.00
2018-07-22T04:22:31.085Z,1940.00
2018-07-22T04:23:31.080Z,2012.00
2018-07-22T04:24:31.057Z,2084.00
2018-07-22T04:25:31.045Z,2156.00
2018-07-22T04:26:31.029Z,2224.00
2018-07-22T04:27:31.024Z,2296.00
2018-07-22T04:28:31.001Z,2364.00
2018-07-22T04:29:30.988Z,2432.00
2018-07-22T04:30:30.974Z,2504.00
2018-07-22T04:31:30.959Z,2572.00
2018-07-22T04:32:30.946Z,2636.00
2018-07-22T04:33:30.932Z,2708.00
2018-07-22T04:34:30.916Z,2780.00
2018-07-22T04:35:30.903Z,2860.00
2018-07-22T04:36:30.890Z,2924.00
2018-07-22T04:37:30.874Z,2972.00
2018-07-22T04:38:30.862Z,3004.00
2018-07-22T04:39:30.847Z,3028.00
2018-07-22T04:40:30.835Z,3048.00
2018-07-22T04:41:30.821Z,3064.00
2018-07-22T04:42:30.805Z,3076.00
2018-07-22T04:43:30.802Z,3096.00
2018-07-22T04:44:30.778Z,3140.00
2018-07-22T04:45:30.765Z,3184.00
2018-07-22T04:46:30.751Z,3256.00
2018-07-22T04:47:30.743Z,3352.00
2018-07-22T04:48:30.721Z,3468.00
2018-07-22T04:49:30.712Z,3632.00
2018-07-22T04:50:30.696Z,3864.00
2018-07-22T04:51:30.690Z,4060.00
2018-07-22T04:52:30.668Z,4180.00
2018-07-22T04:53:30.675Z,4292.00
2018-07-22T04:54:30.648Z,4404.00
2018-07-22T04:55:30.625Z,4508.00
2018-07-22T04:56:30.612Z,4584.00
2018-07-22T04:57:30.601Z,4660.00
2018-07-22T04:58:30.585Z,4716.00
2018-07-22T04:59:30.575Z,4796.00
2018-07-22T05:00:30.558Z,4864.00
2018-07-22T05:01:30.547Z,4940.00
2018-07-22T05:02:30.530Z,5016.00
2018-07-22T05:03:30.639Z,5096.00
2018-07-22T05:04:30.504Z,5160.00
2018-07-22T05:05:30.489Z,5272.00
2018-07-22T05:06:30.475Z,5344.00
2018-07-22T05:07:30.461Z,5396.00
2018-07-22T05:08:30.446Z,5448.00
2018-07-22T05:09:30.434Z,5508.00
2018-07-22T05:10:30.424Z,5580.00
2018-07-22T05:11:30.407Z,5656.00
2018-07-22T05:12:30.403Z,5752.00
2018-07-22T05:13:30.379Z,5852.00
2018-07-22T05:14:30.367Z,5964.00
2018-07-22T05:15:30.354Z,6084.00
2018-07-22T05:16:30.339Z,6212.00
2018-07-22T05:17:30.328Z,6316.00
2018-07-22T05:18:30.320Z,6412.00
2018-07-22T05:19:30.297Z,6484.00
2018-07-22T05:20:30.283Z,6564.00
2018-07-22T05:21:30.270Z,6648.00
2018-07-22T05:22:30.360Z,6748.00
2018-07-22T05:23:30.250Z,6868.00
2018-07-22T05:24:30.231Z,6968.00
2018-07-22T05:25:30.217Z,7040.00
2018-07-22T05:26:30.202Z,7100.00
2018-07-22T05:27:30.188Z,7088.00
2018-07-22T05:28:30.177Z,7168.00
2018-07-22T05:29:30.165Z,7264.00
2018-07-22T05:30:30.149Z,7368.00
2018-07-22T05:31:30.136Z,7512.00
2018-07-22T05:32:30.141Z,7676.00
2018-07-22T05:33:30.111Z,7764.00
2018-07-22T05:34:30.096Z,7856.00
2018-07-22T05:35:30.083Z,7932.00
2018-07-22T05:36:30.071Z,8044.00
2018-07-22T05:37:30.057Z,8228.00
2018-07-22T05:38:30.044Z,8468.00
2018-07-22T05:39:30.037Z,8804.00
2018-07-22T05:40:30.018Z,11336.00
2018-07-22T05:41:30.006Z,19424.00
2018-07-22T05:42:29.992Z,23840.00
2018-07-22T05:43:29.987Z,24608.00
2018-07-22T05:44:29.967Z,24544.00
2018-07-22T05:45:29.952Z,24832.00
2018-07-22T05:46:29.941Z,25408.00
2018-07-22T05:47:29.926Z,26528.00
2018-07-22T05:48:29.914Z,26848.00
2018-07-22T05:49:29.908Z,27776.00
2018-07-22T05:50:29.890Z,27648.00
2018-07-22T05:51:29.890Z,25248.00
2018-07-22T05:52:29.874Z,27648.00
2018-07-22T05:53:29.858Z,28992.00
2018-07-22T05:54:29.845Z,28448.00
2018-07-22T05:55:29.832Z,28128.00
2018-07-22T05:56:29.822Z,29280.00
2018-07-22T05:57:29.822Z,30304.00
2018-07-22T05:58:29.802Z,22496.00
2018-07-22T05:59:29.799Z,31072.00
2018-07-22T06:00:29.783Z,31552.00
2018-07-22T06:01:29.782Z,32448.00
2018-07-22T06:02:29.762Z,33632.00
2018-07-22T06:03:29.751Z,33856.00
2018-07-22T06:04:29.760Z,33888.00
2018-07-22T06:05:29.735Z,33792.00
2018-07-22T06:06:29.728Z,33920.00
2018-07-22T06:07:29.717Z,34272.00
2018-07-22T06:08:29.720Z,32928.00
2018-07-22T06:09:29.712Z,31232.00
2018-07-22T06:10:29.691Z,31968.00
2018-07-22T06:11:29.689Z,32800.00
2018-07-22T06:12:29.725Z,35232.00
2018-07-22T06:13:29.668Z,22144.00
2018-07-22T06:14:29.661Z,33376.00
2018-07-22T06:15:29.656Z,32992.00
2018-07-22T06:16:29.654Z,35584.00
2018-07-22T06:17:29.646Z,38400.00
2018-07-22T06:18:29.631Z,38080.00
2018-07-22T06:19:29.629Z,39456.00
2018-07-22T06:20:29.616Z,41120.00
2018-07-22T06:21:29.612Z,40992.00
2018-07-22T06:22:29.614Z,43072.00
2018-07-22T06:23:29.695Z,43904.00
2018-07-22T06:24:29.602Z,43584.00
2018-07-22T06:25:29.590Z,43840.00
2018-07-22T06:26:29.580Z,42752.00
2018-07-22T06:27:29.572Z,41856.00
2018-07-22T06:28:29.568Z,41664.00
2018-07-22T06:29:29.566Z,43296.00
2018-07-22T06:30:29.561Z,46304.00
2018-07-22T06:31:29.552Z,45696.00
2018-07-22T06:32:29.562Z,45440.00
2018-07-22T06:33:29.542Z,45024.00
2018-07-22T06:34:29.540Z,45184.00
2018-07-22T06:35:29.532Z,45120.00
2018-07-22T06:36:29.535Z,47168.00
2018-07-22T06:37:29.532Z,44576.00
2018-07-22T06:38:29.521Z,47616.00
2018-07-22T06:39:29.516Z,48640.00
2018-07-22T06:40:29.511Z,47328.00
2018-07-22T06:41:29.509Z,48832.00
2018-07-22T06:42:29.514Z,49152.00
2018-07-22T06:43:29.498Z,49504.00
2018-07-22T06:44:29.497Z,49760.00
2018-07-22T06:45:29.497Z,48320.00
2018-07-22T06:46:29.508Z,48640.00
2018-07-22T06:47:29.486Z,47904.00
2018-07-22T06:48:29.484Z,45984.00
2018-07-22T06:49:29.482Z,44320.00
2018-07-22T06:50:29.479Z,45152.00
2018-07-22T06:51:29.476Z,53312.00
2018-07-22T06:52:29.492Z,60608.00
2018-07-22T06:53:29.488Z,62272.00
2018-07-22T06:54:29.476Z,58368.00
2018-07-22T06:55:29.516Z,54816.00
2018-07-22T06:56:29.463Z,50112.00
2018-07-22T06:57:29.463Z,47808.00
2018-07-22T06:58:29.463Z,48096.00
2018-07-22T06:59:29.457Z,49056.00
2018-07-22T07:00:29.455Z,49632.00
2018-07-22T07:01:29.456Z,49056.00
2018-07-22T07:02:29.454Z,47872.00
2018-07-22T07:03:29.452Z,48832.00
2018-07-22T07:04:29.457Z,48480.00
2018-07-22T07:05:29.448Z,51296.00
2018-07-22T07:06:29.451Z,55424.00
2018-07-22T07:07:29.444Z,52192.00
2018-07-22T07:08:29.471Z,32608.00
2018-07-22T07:09:29.442Z,22784.00
2018-07-22T07:10:29.485Z,22592.00
2018-07-22T07:11:29.438Z,20160.00
2018-07-22T07:12:29.443Z,23200.00
2018-07-22T07:13:29.436Z,21184.00
2018-07-22T07:14:29.438Z,22016.00
2018-07-22T07:15:29.441Z,29248.00
2018-07-22T07:16:29.446Z,38176.00
2018-07-22T07:17:29.431Z,42272.00
2018-07-22T07:18:29.438Z,43776.00
2018-07-22T07:19:29.434Z,38944.00
2018-07-22T07:20:29.428Z,36384.00
2018-07-22T07:21:29.424Z,38592.00
2018-07-22T07:22:29.424Z,42208.00
2018-07-22T07:23:29.420Z,45536.00
2018-07-22T07:24:29.422Z,47680.00
2018-07-22T07:25:29.415Z,49664.00
2018-07-22T07:26:29.469Z,51232.00
2018-07-22T07:27:29.416Z,46912.00
2018-07-22T07:28:29.428Z,36128.00
2018-07-22T07:29:29.409Z,33792.00
2018-07-22T07:30:29.411Z,44032.00
2018-07-22T07:31:29.406Z,14748.00
2018-07-22T07:32:29.401Z,14888.00
2018-07-22T07:33:29.414Z,14860.00
2018-07-22T07:34:29.398Z,14864.00
2018-07-22T07:35:29.395Z,14964.00
2018-07-22T07:36:29.395Z,15072.00
2018-07-22T07:37:29.394Z,15116.00
2018-07-22T07:38:29.389Z,15848.00
2018-07-22T07:39:29.542Z,15040.00
2018-07-22T07:40:29.385Z,14588.00
2018-07-22T07:41:29.379Z,14616.00
2018-07-22T07:42:29.381Z,14632.00
2018-07-22T07:43:29.371Z,14640.00
2018-07-22T07:44:29.366Z,14668.00
2018-07-22T07:45:29.370Z,14960.00
2018-07-22T07:46:29.358Z,15492.00
2018-07-22T07:47:29.355Z,17952.00
2018-07-22T07:48:29.350Z,20800.00
2018-07-22T07:49:29.346Z,40992.00
2018-07-22T07:50:29.345Z,28896.00
2018-07-22T07:51:29.337Z,34304.00
2018-07-22T07:52:29.330Z,15572.00
2018-07-22T07:53:29.394Z,21472.00
2018-07-22T07:54:29.320Z,38560.00
2018-07-22T07:55:29.316Z,26560.00
2018-07-22T07:56:29.309Z,35264.00
2018-07-22T07:57:29.311Z,51264.00
2018-07-22T07:58:29.310Z,59616.00
2018-07-22T07:59:29.294Z,60192.00
2018-07-22T08:00:29.295Z,52672.00
2018-07-22T08:01:29.283Z,37920.00
2018-07-22T08:02:29.277Z,17864.00
2018-07-22T08:03:29.271Z,16468.00
2018-07-22T08:04:29.274Z,17336.00
2018-07-22T08:05:29.310Z,17740.00
2018-07-22T08:06:29.258Z,18464.00
2018-07-22T08:07:29.248Z,31456.00
2018-07-22T08:08:29.248Z,29952.00
2018-07-22T08:09:29.239Z,63744.00
2018-07-22T08:10:29.333Z,58592.00
2018-07-22T08:11:29.230Z,39424.00
2018-07-22T08:12:29.222Z,47936.00
2018-07-22T08:13:29.219Z,36672.00
2018-07-22T08:14:29.211Z,20896.00
2018-07-22T08:15:29.206Z,19264.00
2018-07-22T08:16:29.199Z,16804.00
2018-07-22T08:17:29.203Z,14452.00
2018-07-22T08:18:29.190Z,14860.00
2018-07-22T08:19:29.191Z,15160.00
2018-07-22T08:20:29.180Z,14308.00
2018-07-22T08:21:29.188Z,14052.00
2018-07-22T08:22:29.165Z,14964.00
2018-07-22T08:23:29.163Z,15028.00
2018-07-22T08:24:29.154Z,15284.00
2018-07-22T08:25:29.148Z,15348.00
2018-07-22T08:26:29.158Z,15660.00
2018-07-22T08:27:29.136Z,15732.00
2018-07-22T08:28:29.130Z,15944.00
2018-07-22T08:29:29.122Z,15956.00
2018-07-22T08:30:29.147Z,16164.00
2018-07-22T08:31:29.109Z,17440.00
2018-07-22T08:32:29.110Z,15772.00
2018-07-22T08:33:29.096Z,15752.00
2018-07-22T08:34:29.096Z,16020.00
2018-07-22T08:35:29.083Z,16032.00
2018-07-22T08:36:29.074Z,15920.00
2018-07-22T08:37:29.087Z,15908.00
2018-07-22T08:38:29.063Z,16160.00
2018-07-22T08:39:29.053Z,16124.00
2018-07-22T08:40:29.046Z,16544.00
2018-07-22T08:41:29.082Z,18252.00
2018-07-22T08:42:29.032Z,18968.00
2018-07-22T08:43:29.024Z,22272.00
2018-07-22T08:44:29.016Z,17168.00
2018-07-22T08:45:29.011Z,20864.00
2018-07-22T08:46:29.004Z,27072.00
2018-07-22T08:47:28.995Z,36000.00
2018-07-22T08:48:28.988Z,19648.00
2018-07-22T08:49:28.980Z,18296.00
2018-07-22T08:50:28.973Z,28544.00
2018-07-22T08:51:28.970Z,18900.00
2018-07-22T08:52:28.974Z,37056.00
2018-07-22T08:53:28.962Z,26400.00
2018-07-22T08:54:28.948Z,16512.00
2018-07-22T08:55:28.944Z,16908.00
2018-07-22T08:56:28.931Z,16692.00
2018-07-22T08:57:28.929Z,17476.00
2018-07-22T08:58:28.967Z,19872.00
2018-07-22T08:59:28.908Z,18300.00
2018-07-22T09:00:28.906Z,17276.00
2018-07-22T09:01:28.894Z,19904.00
2018-07-22T09:02:28.888Z,19072.00
2018-07-22T09:03:28.939Z,17412.00
2018-07-22T09:04:28.875Z,44384.00
2018-07-22T09:05:28.910Z,17800.00
2018-07-22T09:06:28.859Z,17992.00
2018-07-22T09:07:28.859Z,23392.00
2018-07-22T09:08:28.851Z,17772.00
2018-07-22T09:09:28.837Z,20640.00
2018-07-22T09:10:28.830Z,17144.00
2018-07-22T09:11:28.821Z,32032.00
2018-07-22T09:12:28.815Z,17112.00
2018-07-22T09:13:28.812Z,86912.00
2018-07-22T09:14:28.809Z,19232.00
2018-07-22T09:15:28.796Z,27680.00
2018-07-22T09:16:28.803Z,25088.00
2018-07-22T09:17:28.780Z,26656.00
2018-07-22T09:18:28.773Z,17176.00
2018-07-22T09:19:28.776Z,17184.00
2018-07-22T09:20:28.776Z,24128.00
2018-07-22T09:21:28.755Z,24064.00
2018-07-22T09:22:28.754Z,17476.00
2018-07-22T09:23:28.737Z,18368.00
2018-07-22T09:24:28.736Z,18232.00
2018-07-22T09:25:28.727Z,29280.00
2018-07-22T09:26:28.748Z,19136.00
2018-07-22T09:27:28.725Z,28704.00
2018-07-22T09:28:28.704Z,18228.00
2018-07-22T09:29:28.700Z,18408.00
2018-07-22T09:30:28.692Z,16736.00
2018-07-22T09:31:28.684Z,18944.00
2018-07-22T09:32:28.677Z,25760.00
2018-07-22T09:33:28.679Z,31904.00
2018-07-22T09:34:28.675Z,61696.00
2018-07-22T09:35:28.658Z,86496.00
2018-07-22T09:36:28.685Z,85536.00
2018-07-22T09:37:28.664Z,30784.00
2018-07-22T09:38:28.648Z,73280.00
2018-07-22T09:39:28.643Z,18208.00
2018-07-22T09:40:28.628Z,33312.00
2018-07-22T09:41:28.635Z,40064.00
2018-07-22T09:42:28.619Z,21120.00
2018-07-22T09:43:28.611Z,21632.00
2018-07-22T09:44:28.612Z,18280.00
2018-07-22T09:45:28.600Z,20192.00
2018-07-22T09:46:28.595Z,31872.00
2018-07-22T09:47:28.598Z,30688.00
2018-07-22T09:48:28.593Z,41728.00
2018-07-22T09:49:28.582Z,22336.00
2018-07-22T09:50:28.575Z,59584.00
2018-07-22T09:51:28.571Z,29408.00
2018-07-22T09:52:28.572Z,78656.00
2018-07-22T09:53:28.574Z,46688.00
2018-07-22T09:54:28.563Z,25184.00
2018-07-22T09:55:28.552Z,24128.00
2018-07-22T09:56:28.547Z,74560.00
2018-07-22T09:57:28.542Z,23712.00
2018-07-22T09:58:28.573Z,48672.00
2018-07-22T09:59:28.557Z,28928.00
2018-07-22T10:00:28.529Z,53696.00
2018-07-22T10:01:28.523Z,69152.00
2018-07-22T10:02:28.523Z,81536.00
2018-07-22T10:03:28.518Z,58912.00
2018-07-22T10:04:28.527Z,40096.00
2018-07-22T10:05:28.510Z,83040.00
2018-07-22T10:06:28.533Z,82016.00
2018-07-22T10:07:28.516Z,51008.00
2018-07-22T10:08:28.498Z,97120.00
2018-07-22T10:09:28.546Z,99136.00
2018-07-22T10:10:28.495Z,82720.00
2018-07-22T10:11:28.487Z,39552.00
2018-07-22T10:12:28.484Z,97248.00
2018-07-22T10:13:28.491Z,101280.00
2018-07-22T10:14:28.500Z,100864.00
2018-07-22T10:15:28.478Z,95968.00
2018-07-22T10:16:28.484Z,96448.00
2018-07-22T10:17:28.519Z,96736.00
2018-07-22T10:18:28.475Z,92480.00
2018-07-22T10:19:28.612Z,91424.00
2018-07-22T10:20:28.488Z,90016.00
2018-07-22T10:21:28.477Z,92864.00
2018-07-22T10:22:28.483Z,97696.00
2018-07-22T10:23:28.498Z,81408.00
2018-07-22T10:24:28.484Z,94880.00
2018-07-22T10:25:28.484Z,95904.00
2018-07-22T10:26:28.485Z,96672.00
2018-07-22T10:27:28.489Z,97344.00
2018-07-22T10:28:28.490Z,102208.00
2018-07-22T10:29:28.487Z,103968.00
2018-07-22T10:30:28.701Z,103296.00
2018-07-22T10:31:28.493Z,105216.00
2018-07-22T10:32:28.496Z,105632.00
2018-07-22T10:33:28.506Z,101408.00
2018-07-22T10:34:28.504Z,100640.00
2018-07-22T10:35:28.507Z,100256.00
2018-07-22T10:36:28.509Z,91136.00
2018-07-22T10:37:28.513Z,97888.00
2018-07-22T10:38:28.520Z,100768.00
2018-07-22T10:39:28.538Z,97504.00
2018-07-22T10:40:28.529Z,95584.00
2018-07-22T10:41:28.546Z,99616.00
2018-07-22T10:42:28.538Z,103104.00
2018-07-22T10:43:28.541Z,105728.00
2018-07-22T10:44:28.558Z,101088.00
2018-07-22T10:45:28.582Z,97728.00
2018-07-22T10:46:28.558Z,96320.00
2018-07-22T10:47:28.564Z,95808.00
2018-07-22T10:48:28.570Z,97472.00
2018-07-22T10:49:28.577Z,92608.00
2018-07-22T10:50:28.590Z,91584.00
2018-07-22T10:51:28.590Z,95712.00
2018-07-22T10:52:28.598Z,91712.00
2018-07-22T10:53:28.611Z,88800.00
2018-07-22T10:54:28.607Z,85248.00
2018-07-22T10:55:28.613Z,86912.00
2018-07-22T10:56:28.616Z,90144.00
2018-07-22T10:57:28.652Z,90944.00
2018-07-22T10:58:28.632Z,95872.00
2018-07-22T10:59:28.644Z,94688.00
2018-07-22T11:00:28.643Z,94368.00
2018-07-22T11:01:28.653Z,93280.00
2018-07-22T11:02:28.669Z,95808.00
2018-07-22T11:03:28.661Z,93280.00
2018-07-22T11:04:28.682Z,58848.00
2018-07-22T11:05:28.676Z,51424.00
2018-07-22T11:06:28.686Z,30112.00
2018-07-22T11:07:28.686Z,26464.00
2018-07-22T11:08:28.690Z,26912.00
2018-07-22T11:09:28.704Z,46784.00
2018-07-22T11:10:28.702Z,86624.00
2018-07-22T11:11:28.711Z,87744.00
2018-07-22T11:12:28.717Z,74496.00
2018-07-22T11:13:28.738Z,59296.00
2018-07-22T11:14:28.774Z,27264.00
2018-07-22T11:15:28.722Z,20480.00
2018-07-22T11:16:28.736Z,16848.00
2018-07-22T11:17:28.740Z,16436.00
2018-07-22T11:18:28.753Z,17140.00
2018-07-22T11:19:28.751Z,15296.00
2018-07-22T11:20:28.758Z,16056.00
2018-07-22T11:21:28.744Z,98048.00
2018-07-22T11:22:28.747Z,93536.00
2018-07-22T11:23:28.755Z,93088.00
2018-07-22T11:24:28.752Z,87168.00
2018-07-22T11:25:28.752Z,26912.00
2018-07-22T11:26:28.767Z,28928.00
2018-07-22T11:27:28.753Z,77536.00
2018-07-22T11:28:28.760Z,88448.00
2018-07-22T11:29:28.763Z,87808.00
2018-07-22T11:30:28.762Z,88192.00
2018-07-22T11:31:28.772Z,88640.00
2018-07-22T11:32:28.766Z,34560.00
2018-07-22T11:33:28.775Z,90144.00
2018-07-22T11:34:28.769Z,79136.00
2018-07-22T11:35:28.782Z,25504.00
2018-07-22T11:36:28.781Z,36832.00
2018-07-22T11:37:28.779Z,35136.00
2018-07-22T11:38:28.788Z,29632.00
2018-07-22T11:39:28.787Z,66144.00
2018-07-22T11:40:28.785Z,43072.00
2018-07-22T11:41:28.801Z,39872.00
2018-07-22T11:42:28.792Z,23744.00
2018-07-22T11:43:28.815Z,29056.00
2018-07-22T11:44:28.793Z,21792.00
2018-07-22T11:45:28.795Z,17824.00
2018-07-22T11:46:28.797Z,15500.00
2018-07-22T11:47:28.807Z,14212.00
2018-07-22T11:48:28.798Z,13444.00
2018-07-22T11:49:28.803Z,13152.00
2018-07-22T11:50:28.870Z,13284.00
2018-07-22T11:51:28.802Z,13620.00
2018-07-22T11:52:28.811Z,40256.00
2018-07-22T11:53:28.801Z,43168.00
2018-07-22T11:54:28.847Z,29184.00
2018-07-22T11:55:29.005Z,19200.00
2018-07-22T11:56:28.800Z,18688.00
2018-07-22T11:57:28.805Z,17888.00
2018-07-22T11:58:28.804Z,18432.00
2018-07-22T11:59:28.798Z,19392.00
2018-07-22T12:00:28.803Z,20320.00
2018-07-22T12:01:28.844Z,19808.00
2018-07-22T12:02:28.797Z,18848.00
2018-07-22T12:03:28.808Z,17248.00
2018-07-22T12:04:28.797Z,15484.00
2018-07-22T12:05:28.791Z,14944.00
2018-07-22T12:06:28.795Z,15164.00
2018-07-22T12:07:28.794Z,15792.00
2018-07-22T12:08:28.787Z,17216.00
2018-07-22T12:09:28.796Z,18592.00
2018-07-22T12:10:28.779Z,19712.00
2018-07-22T12:11:28.776Z,21248.00
2018-07-22T12:12:28.827Z,23616.00